Private Wetterstation Sandau
Wetterdaten: Donnerstag, 28.02.2013
Datum Zeit Temp. A. Feuchte A. Luftdruck Regen Wind Richtung Richtung Taupunkt Windchill
28.02.2013 00:01 1,8 C 90 % 1032,7 hPa 0,0 l/m 0,0 km/h (0 Bft) W 270 0,3 C 1,8 C
28.02.2013 00:06 1,8 C 90 % 1032,6 hPa 0,0 l/m 0,0 km/h (0 Bft) W 270 0,3 C 1,8 C
28.02.2013 00:11 1,8 C 90 % 1032,6 hPa 0,0 l/m 0,0 km/h (0 Bft) W 270 0,3 C 1,8 C
28.02.2013 00:16 1,8 C 90 % 1032,7 hPa 0,0 l/m 1,4 km/h (1 Bft) W 270 0,3 C 1,8 C
28.02.2013 00:21 1,8 C 90 % 1032,6 hPa 0,0 l/m 0,0 km/h (0 Bft) W 270 0,3 C 1,8 C
28.02.2013 00:26 1,8 C 90 % 1032,7 hPa 0,0 l/m 1,1 km/h (1 Bft) W 270 0,3 C 1,8 C
28.02.2013 00:31 1,8 C 90 % 1032,6 hPa 0,0 l/m 0,0 km/h (0 Bft) W-SW 247 0,3 C 1,8 C
28.02.2013 00:36 1,8 C 90 % 1032,6 hPa 0,0 l/m 1,4 km/h (1 Bft) W-SW 247 0,3 C 1,8 C
28.02.2013 00:41 1,8 C 90 % 1032,7 hPa 0,0 l/m 0,0 km/h (0 Bft) W-SW 247 0,3 C 1,8 C
28.02.2013 00:46 1,6 C 90 % 1032,4 hPa 0,0 l/m 2,2 km/h (1 Bft) W-SW 247 0,1 C 1,6 C
28.02.2013 00:51 1,6 C 90 % 1032,4 hPa 0,0 l/m 7,2 km/h (2 Bft) W-SW 247 0,1 C -0,6 C
28.02.2013 00:56 1,7 C 90 % 1032,4 hPa 0,0 l/m 0,0 km/h (0 Bft) W 270 0,2 C 1,7 C
28.02.2013 01:01 1,6 C 90 % 1032,5 hPa 0,0 l/m 1,1 km/h (1 Bft) W-SW 247 0,1 C 1,6 C
28.02.2013 01:06 1,7 C 90 % 1032,3 hPa 0,0 l/m 0,0 km/h (0 Bft) W 270 0,2 C 1,7 C
28.02.2013 01:11 1,6 C 90 % 1032,5 hPa 0,0 l/m 2,2 km/h (1 Bft) W 270 0,1 C 1,6 C
28.02.2013 01:16 1,6 C 90 % 1032,6 hPa 0,0 l/m 1,4 km/h (1 Bft) W-NW 292 0,1 C 1,6 C
28.02.2013 01:21 1,6 C 90 % 1032,2 hPa 0,0 l/m 0,0 km/h (0 Bft) W-NW 292 0,1 C 1,6 C
28.02.2013 01:26 1,6 C 90 % 1032,3 hPa 0,0 l/m 2,5 km/h (1 Bft) W 270 0,1 C 1,6 C
28.02.2013 01:31 1,6 C 90 % 1032,3 hPa 0,0 l/m 0,0 km/h (0 Bft) W 270 0,1 C 1,6 C
28.02.2013 01:36 1,6 C 90 % 1032,1 hPa 0,0 l/m 0,0 km/h (0 Bft) W 270 0,1 C 1,6 C
28.02.2013 01:41 1,4 C 90 % 1032,0 hPa 0,0 l/m 0,0 km/h (0 Bft) W 270 -0,1 C 1,4 C
28.02.2013 01:46 1,3 C 90 % 1032,1 hPa 0,0 l/m 0,0 km/h (0 Bft) W 270 -0,2 C 1,3 C
28.02.2013 01:51 1,3 C 90 % 1032,0 hPa 0,0 l/m 0,0 km/h (0 Bft) W 270 -0,2 C 1,3 C
28.02.2013 01:56 1,1 C 89 % 1032,1 hPa 0,0 l/m 0,0 km/h (0 Bft) W 270 -0,5 C 1,1 C
28.02.2013 02:01 0,9 C 89 % 1031,9 hPa 0,0 l/m 0,0 km/h (0 Bft) W 270 -0,7 C 0,9 C
28.02.2013 02:06 0,8 C 89 % 1031,8 hPa 0,0 l/m 0,0 km/h (0 Bft) W 270 -0,8 C 0,8 C
28.02.2013 02:11 0,7 C 89 % 1031,8 hPa 0,0 l/m 0,0 km/h (0 Bft) W 270 -0,9 C 0,7 C
28.02.2013 02:16 0,6 C 89 % 1031,8 hPa 0,0 l/m 0,0 km/h (0 Bft) W 270 -1,0 C 0,6 C
28.02.2013 02:21 0,4 C 89 % 1031,7 hPa 0,0 l/m 0,0 km/h (0 Bft) W 270 -1,2 C 0,4 C
28.02.2013 02:26 0,3 C 89 % 1031,6 hPa 0,0 l/m 0,0 km/h (0 Bft) W 270 -1,3 C 0,3 C
28.02.2013 02:31 0,2 C 89 % 1031,6 hPa 0,0 l/m 0,0 km/h (0 Bft) W 270 -1,4 C 0,2 C
28.02.2013 02:36 0,1 C 89 % 1031,6 hPa 0,0 l/m 0,0 km/h (0 Bft) W 270 -1,5 C 0,1 C
28.02.2013 02:41 0,0 C 89 % 1031,6 hPa 0,0 l/m 0,0 km/h (0 Bft) W 270 -1,6 C 0,0 C
28.02.2013 02:46 -0,1 C 89 % 1031,5 hPa 0,0 l/m 0,0 km/h (0 Bft) W 270 -1,7 C -0,1 C
28.02.2013 02:51 -0,1 C 89 % 1031,2 hPa 0,0 l/m 0,0 km/h (0 Bft) W 270 -1,7 C -0,1 C
28.02.2013 02:56 -0,2 C 89 % 1031,3 hPa 0,0 l/m 0,0 km/h (0 Bft) W 270 -1,8 C -0,2 C
28.02.2013 03:01 -0,2 C 89 % 1031,4 hPa 0,0 l/m 0,0 km/h (0 Bft) W 270 -1,8 C -0,2 C
28.02.2013 03:06 -0,3 C 89 % 1031,2 hPa 0,0 l/m 0,0 km/h (0 Bft) W 270 -1,9 C -0,3 C
28.02.2013 03:11 -0,4 C 90 % 1031,3 hPa 0,0 l/m 0,0 km/h (0 Bft) W 270 -1,8 C -0,4 C
28.02.2013 03:16 -0,4 C 90 % 1031,1 hPa 0,0 l/m 0,0 km/h (0 Bft) W 270 -1,8 C -0,4 C
28.02.2013 03:21 -0,4 C 90 % 1031,1 hPa 0,0 l/m 0,0 km/h (0 Bft) W 270 -1,8 C -0,4 C
28.02.2013 03:26 -0,5 C 90 % 1031,1 hPa 0,0 l/m 0,0 km/h (0 Bft) W 270 -1,9 C -0,5 C
28.02.2013 03:31 -0,5 C 90 % 1031,1 hPa 0,0 l/m 0,0 km/h (0 Bft) W 270 -1,9 C -0,5 C
28.02.2013 03:36 -0,6 C 90 % 1031,1 hPa 0,0 l/m 0,0 km/h (0 Bft) W 270 -2,0 C -0,6 C
28.02.2013 03:41 -0,6 C 90 % 1030,9 hPa 0,0 l/m 0,0 km/h (0 Bft) W 270 -2,0 C -0,6 C
28.02.2013 03:46 -0,6 C 90 % 1030,9 hPa 0,0 l/m 0,0 km/h (0 Bft) W 270 -2,0 C -0,6 C
28.02.2013 03:51 -0,7 C 90 % 1030,8 hPa 0,0 l/m 0,0 km/h (0 Bft) W 270 -2,1 C -0,7 C
28.02.2013 03:56 -0,7 C 90 % 1030,9 hPa 0,0 l/m 0,0 km/h (0 Bft) W 270 -2,1 C -0,7 C
28.02.2013 04:01 -0,7 C 90 % 1030,9 hPa 0,0 l/m 0,0 km/h (0 Bft) W 270 -2,1 C -0,7 C
28.02.2013 04:06 -0,7 C 90 % 1030,8 hPa 0,0 l/m 0,0 km/h (0 Bft) W 270 -2,1 C -0,7 C
28.02.2013 04:11 -0,7 C 90 % 1030,8 hPa 0,0 l/m 0,0 km/h (0 Bft) W 270 -2,1 C -0,7 C
28.02.2013 04:16 -0,8 C 90 % 1030,7 hPa 0,0 l/m 0,0 km/h (0 Bft) W 270 -2,2 C -0,8 C
28.02.2013 04:21 -0,8 C 90 % 1030,5 hPa 0,0 l/m 0,0 km/h (0 Bft) W 270 -2,2 C -0,8 C
28.02.2013 04:26 -0,8 C 90 % 1030,6 hPa 0,0 l/m 0,0 km/h (0 Bft) W 270 -2,2 C -0,8 C
28.02.2013 04:31 -0,9 C 90 % 1030,7 hPa 0,0 l/m 0,0 km/h (0 Bft) W 270 -2,3 C -0,9 C
28.02.2013 04:36 -0,9 C 90 % 1030,7 hPa 0,0 l/m 0,0 km/h (0 Bft) W 270 -2,3 C -0,9 C
28.02.2013 04:41 -0,9 C 90 % 1030,5 hPa 0,0 l/m 0,0 km/h (0 Bft) W 270 -2,3 C -0,9 C
28.02.2013 04:46 -1,0 C 90 % 1030,5 hPa 0,0 l/m 0,0 km/h (0 Bft) W 270 -2,4 C -1,0 C
28.02.2013 04:51 -1,0 C 90 % 1030,5 hPa 0,0 l/m 0,0 km/h (0 Bft) W 270 -2,4 C -1,0 C
28.02.2013 04:56 -1,1 C 90 % 1030,5 hPa 0,0 l/m 0,0 km/h (0 Bft) W 270 -2,5 C -1,1 C
28.02.2013 05:01 -1,1 C 90 % 1030,6 hPa 0,0 l/m 0,0 km/h (0 Bft) W 270 -2,5 C -1,1 C
28.02.2013 05:06 -1,1 C 90 % 1030,5 hPa 0,0 l/m 0,0 km/h (0 Bft) W 270 -2,5 C -1,1 C
28.02.2013 05:11 -1,1 C 90 % 1030,5 hPa 0,0 l/m 0,0 km/h (0 Bft) W 270 -2,5 C -1,1 C
28.02.2013 05:16 -1,1 C 91 % 1030,4 hPa 0,0 l/m 0,0 km/h (0 Bft) W 270 -2,4 C -1,1 C
28.02.2013 05:21 -1,1 C 91 % 1030,4 hPa 0,0 l/m 0,0 km/h (0 Bft) W 270 -2,4 C -1,1 C
28.02.2013 05:26 -1,1 C 91 % 1030,4 hPa 0,0 l/m 1,1 km/h (1 Bft) W 270 -2,4 C -1,1 C
28.02.2013 05:31 -1,1 C 91 % 1030,2 hPa 0,0 l/m 0,0 km/h (0 Bft) W-SW 247 -2,4 C -1,1 C
28.02.2013 05:36 -1,1 C 91 % 1030,2 hPa 0,0 l/m 0,0 km/h (0 Bft) W-SW 247 -2,4 C -1,1 C
28.02.2013 05:41 -1,2 C 91 % 1030,3 hPa 0,0 l/m 0,0 km/h (0 Bft) W-SW 247 -2,5 C -1,2 C
28.02.2013 05:46 -1,2 C 91 % 1030,2 hPa 0,0 l/m 2,2 km/h (1 Bft) W-SW 247 -2,5 C -1,2 C
28.02.2013 05:51 -1,2 C 91 % 1030,2 hPa 0,0 l/m 0,0 km/h (0 Bft) W-SW 247 -2,5 C -1,2 C
28.02.2013 05:56 -1,2 C 91 % 1030,2 hPa 0,0 l/m 0,0 km/h (0 Bft) W-SW 247 -2,5 C -1,2 C
28.02.2013 06:01 -1,3 C 91 % 1030,2 hPa 0,0 l/m 2,2 km/h (1 Bft) W-SW 247 -2,6 C -1,3 C
28.02.2013 06:06 -1,3 C 91 % 1030,0 hPa 0,0 l/m 0,0 km/h (0 Bft) W-SW 247 -2,6 C -1,3 C
28.02.2013 06:11 -1,3 C 91 % 1029,9 hPa 0,0 l/m 0,0 km/h (0 Bft) W-SW 247 -2,6 C -1,3 C
28.02.2013 06:16 -1,4 C 91 % 1029,9 hPa 0,0 l/m 0,0 km/h (0 Bft) W-SW 247 -2,7 C -1,4 C
28.02.2013 06:21 -1,4 C 91 % 1029,8 hPa 0,0 l/m 0,0 km/h (0 Bft) W-SW 247 -2,7 C -1,4 C
28.02.2013 06:26 -1,4 C 91 % 1029,8 hPa 0,0 l/m 0,0 km/h (0 Bft) W-SW 247 -2,7 C -1,4 C
28.02.2013 06:31 -1,4 C 91 % 1029,8 hPa 0,0 l/m 0,0 km/h (0 Bft) W 270 -2,7 C -1,4 C
28.02.2013 06:36 -1,4 C 91 % 1029,9 hPa 0,0 l/m 2,2 km/h (1 Bft) W 270 -2,7 C -1,4 C
28.02.2013 06:41 -1,4 C 91 % 1029,9 hPa 0,0 l/m 3,2 km/h (1 Bft) W 270 -2,7 C -1,4 C
28.02.2013 06:46 -1,4 C 91 % 1029,8 hPa 0,0 l/m 0,0 km/h (0 Bft) W 270 -2,7 C -1,4 C
28.02.2013 06:51 -1,3 C 91 % 1029,7 hPa 0,0 l/m 1,4 km/h (1 Bft) W-SW 247 -2,6 C -1,3 C
28.02.2013 06:56 -1,2 C 91 % 1029,7 hPa 0,0 l/m 0,0 km/h (0 Bft) W-SW 247 -2,5 C -1,2 C
28.02.2013 07:01 -1,2 C 91 % 1029,7 hPa 0,0 l/m 1,8 km/h (1 Bft) W 270 -2,5 C -1,2 C
28.02.2013 07:06 -1,1 C 91 % 1029,7 hPa 0,0 l/m 0,0 km/h (0 Bft) W 270 -2,4 C -1,1 C
28.02.2013 07:11 -1,1 C 91 % 1029,7 hPa 0,0 l/m 0,0 km/h (0 Bft) W 270 -2,4 C -1,1 C
28.02.2013 07:16 -1,1 C 91 % 1029,5 hPa 0,0 l/m 2,2 km/h (1 Bft) W 270 -2,4 C -1,1 C
28.02.2013 07:21 -1,0 C 92 % 1029,5 hPa 0,0 l/m 0,0 km/h (0 Bft) W 270 -2,1 C -1,0 C
28.02.2013 07:26 -1,0 C 92 % 1029,5 hPa 0,0 l/m 0,0 km/h (0 Bft) W 270 -2,1 C -1,0 C
28.02.2013 07:31 -0,9 C 92 % 1029,7 hPa 0,0 l/m 4,0 km/h (1 Bft) W 270 -2,0 C -0,9 C
28.02.2013 07:36 -0,8 C 92 % 1029,7 hPa 0,0 l/m 2,9 km/h (1 Bft) W-SW 247 -1,9 C -0,8 C
28.02.2013 07:41 -0,8 C 92 % 1029,6 hPa 0,0 l/m 0,0 km/h (0 Bft) W-SW 247 -1,9 C -0,8 C
28.02.2013 07:46 -0,7 C 92 % 1029,6 hPa 0,0 l/m 1,8 km/h (1 Bft) W-SW 247 -1,8 C -0,7 C
28.02.2013 07:51 -0,6 C 92 % 1029,8 hPa 0,0 l/m 4,3 km/h (1 Bft) W-SW 247 -1,7 C -0,6 C
28.02.2013 07:56 -0,5 C 92 % 1029,7 hPa 0,0 l/m 1,1 km/h (1 Bft) W-SW 247 -1,6 C -0,5 C
28.02.2013 08:01 -0,4 C 92 % 1029,8 hPa 0,0 l/m 4,0 km/h (1 Bft) W-SW 247 -1,5 C -0,4 C
28.02.2013 08:06 -0,4 C 92 % 1029,6 hPa 0,0 l/m 5,8 km/h (2 Bft) W-SW 247 -1,5 C -2,4 C
28.02.2013 08:11 -0,2 C 92 % 1029,7 hPa 0,0 l/m 5,8 km/h (2 Bft) W-SW 247 -1,3 C -2,2 C
28.02.2013 08:16 -0,2 C 92 % 1029,7 hPa 0,0 l/m 2,5 km/h (1 Bft) W-SW 247 -1,3 C -0,2 C
28.02.2013 08:21 -0,1 C 92 % 1029,5 hPa 0,0 l/m 1,8 km/h (1 Bft) W-SW 247 -1,2 C -0,1 C
28.02.2013 08:26 -0,1 C 92 % 1029,8 hPa 0,0 l/m 0,0 km/h (0 Bft) W-SW 247 -1,2 C -0,1 C
28.02.2013 08:31 0,1 C 92 % 1029,8 hPa 0,0 l/m 0,0 km/h (0 Bft) W-SW 247 -1,0 C 0,1 C
28.02.2013 08:36 0,2 C 92 % 1029,7 hPa 0,0 l/m 5,4 km/h (1 Bft) W-SW 247 -0,9 C -1,5 C
28.02.2013 08:41 0,3 C 92 % 1029,7 hPa 0,0 l/m 5,4 km/h (1 Bft) W-SW 247 -0,8 C -1,4 C
28.02.2013 08:46 0,3 C 93 % 1029,7 hPa 0,0 l/m 3,6 km/h (1 Bft) W-SW 247 -0,7 C 0,3 C
28.02.2013 08:51 0,4 C 93 % 1029,8 hPa 0,0 l/m 2,2 km/h (1 Bft) W-SW 247 -0,6 C 0,4 C
28.02.2013 08:56 0,5 C 93 % 1029,7 hPa 0,0 l/m 2,2 km/h (1 Bft) W-SW 247 -0,5 C 0,5 C
28.02.2013 09:01 0,6 C 93 % 1029,8 hPa 0,0 l/m 5,4 km/h (1 Bft) W-SW 247 -0,4 C -1,1 C
28.02.2013 09:06 0,7 C 93 % 1029,7 hPa 0,0 l/m 5,0 km/h (1 Bft) W-SW 247 -0,3 C -0,8 C
28.02.2013 09:11 0,8 C 93 % 1029,6 hPa 0,0 l/m 5,8 km/h (2 Bft) W 270 -0,2 C -1,0 C
28.02.2013 09:16 0,9 C 93 % 1029,7 hPa 0,0 l/m 3,6 km/h (1 Bft) W-SW 247 -0,1 C 0,9 C
28.02.2013 09:21 1,0 C 93 % 1029,6 hPa 0,0 l/m 7,6 km/h (2 Bft) W-SW 247 -0,0 C -1,4 C
28.02.2013 09:26 1,1 C 93 % 1029,6 hPa 0,0 l/m 3,2 km/h (1 Bft) W-SW 247 0,1 C 1,1 C
28.02.2013 09:31 1,2 C 93 % 1029,5 hPa 0,0 l/m 4,0 km/h (1 Bft) W 270 0,2 C 1,2 C
28.02.2013 09:36 1,3 C 93 % 1029,5 hPa 0,0 l/m 8,6 km/h (2 Bft) W-NW 292 0,3 C -1,4 C
28.02.2013 09:41 1,3 C 92 % 1029,6 hPa 0,0 l/m 5,0 km/h (1 Bft) W-NW 292 0,1 C -0,1 C
28.02.2013 09:46 1,3 C 92 % 1029,5 hPa 0,0 l/m 4,7 km/h (1 Bft) W 270 0,1 C 0,0 C
28.02.2013 09:51 1,4 C 92 % 1029,4 hPa 0,0 l/m 1,8 km/h (1 Bft) W 270 0,2 C 1,4 C
28.02.2013 09:56 1,5 C 92 % 1029,5 hPa 0,0 l/m 3,2 km/h (1 Bft) W-SW 247 0,3 C 1,5 C
28.02.2013 10:01 1,6 C 92 % 1029,5 hPa 0,0 l/m 2,2 km/h (1 Bft) W-SW 247 0,4 C 1,6 C
28.02.2013 10:06 1,8 C 92 % 1029,4 hPa 0,0 l/m 9,7 km/h (2 Bft) W-SW 247 0,6 C -1,1 C
28.02.2013 10:11 1,9 C 92 % 1029,3 hPa 0,0 l/m 13,0 km/h (3 Bft) W-SW 247 0,7 C -1,7 C
28.02.2013 10:16 1,9 C 92 % 1029,3 hPa 0,0 l/m 11,5 km/h (2 Bft) W-SW 247 0,7 C -1,4 C
28.02.2013 10:21 2,1 C 92 % 1029,3 hPa 0,0 l/m 11,9 km/h (2 Bft) W-SW 247 0,9 C -1,2 C
28.02.2013 10:26 2,2 C 91 % 1029,4 hPa 0,0 l/m 3,6 km/h (1 Bft) W 270 0,9 C 2,2 C
28.02.2013 10:31 2,4 C 91 % 1029,2 hPa 0,0 l/m 7,2 km/h (2 Bft) W 270 1,1 C 0,3 C
28.02.2013 10:36 2,4 C 90 % 1029,2 hPa 0,0 l/m 5,4 km/h (1 Bft) S-SW 202 0,9 C 1,0 C
28.02.2013 10:41 2,5 C 90 % 1029,3 hPa 0,0 l/m 3,6 km/h (1 Bft) W-SW 247 1,0 C 2,5 C
28.02.2013 10:46 2,6 C 90 % 1029,2 hPa 0,0 l/m 9,7 km/h (2 Bft) W-SW 247 1,1 C -0,1 C
28.02.2013 10:51 2,8 C 90 % 1029,2 hPa 0,0 l/m 5,0 km/h (1 Bft) W 270 1,3 C 1,6 C
28.02.2013 10:56 2,9 C 89 % 1029,3 hPa 0,0 l/m 6,1 km/h (2 Bft) W-SW 247 1,3 C 1,3 C
28.02.2013 11:01 3,0 C 89 % 1029,2 hPa 0,0 l/m 4,7 km/h (1 Bft) N-NW 337 1,4 C 1,9 C
28.02.2013 11:06 3,1 C 89 % 1029,2 hPa 0,0 l/m 6,8 km/h (2 Bft) W 270 1,5 C 1,3 C
28.02.2013 11:11 3,2 C 88 % 1029,1 hPa 0,0 l/m 7,6 km/h (2 Bft) W-NW 292 1,4 C 1,1 C
28.02.2013 11:16 3,3 C 87 % 1029,0 hPa 0,0 l/m 14,0 km/h (3 Bft) W 270 1,3 C -0,2 C
28.02.2013 11:21 3,4 C 87 % 1029,0 hPa 0,0 l/m 16,9 km/h (3 Bft) W-SW 247 1,4 C -0,5 C
28.02.2013 11:26 3,5 C 86 % 1029,0 hPa 0,0 l/m 11,5 km/h (2 Bft) W 270 1,4 C 0,5 C
28.02.2013 11:31 3,4 C 86 % 1029,0 hPa 0,0 l/m 6,1 km/h (2 Bft) W-SW 247 1,3 C 1,8 C
28.02.2013 11:36 3,6 C 86 % 1028,8 hPa 0,0 l/m 10,1 km/h (2 Bft) W-SW 247 1,5 C 1,0 C
28.02.2013 11:41 3,7 C 86 % 1028,8 hPa 0,0 l/m 14,4 km/h (3 Bft) W-SW 247 1,6 C 0,2 C
28.02.2013 11:46 3,8 C 85 % 1028,7 hPa 0,0 l/m 13,3 km/h (3 Bft) W 270 1,5 C 0,6 C
28.02.2013 11:51 3,9 C 85 % 1028,8 hPa 0,0 l/m 5,8 km/h (2 Bft) W-NW 292 1,6 C 2,5 C
28.02.2013 11:56 4,1 C 84 % 1028,7 hPa 0,0 l/m 7,2 km/h (2 Bft) W-SW 247 1,6 C 2,3 C
28.02.2013 12:01 4,3 C 84 % 1028,7 hPa 0,0 l/m 8,3 km/h (2 Bft) W-SW 247 1,8 C 2,2 C
28.02.2013 12:06 4,4 C 83 % 1028,8 hPa 0,0 l/m 9,7 km/h (2 Bft) W-SW 247 1,8 C 2,0 C
28.02.2013 12:11 4,5 C 83 % 1028,6 hPa 0,0 l/m 10,1 km/h (2 Bft) SW 225 1,9 C 2,0 C
28.02.2013 12:16 4,6 C 83 % 1028,5 hPa 0,0 l/m 7,9 km/h (2 Bft) W 270 2,0 C 2,7 C
28.02.2013 12:21 4,7 C 83 % 1028,3 hPa 0,0 l/m 7,9 km/h (2 Bft) W-SW 247 2,1 C 2,8 C
28.02.2013 12:26 4,8 C 82 % 1028,3 hPa 0,0 l/m 12,6 km/h (3 Bft) W 270 2,0 C 1,9 C
28.02.2013 12:31 4,9 C 82 % 1028,1 hPa 0,0 l/m 15,5 km/h (3 Bft) W-SW 247 2,1 C 1,5 C
28.02.2013 12:36 4,9 C 80 % 1028,1 hPa 0,0 l/m 9,0 km/h (2 Bft) NW 315 1,7 C 2,8 C
28.02.2013 12:41 5,0 C 80 % 1028,0 hPa 0,0 l/m 17,6 km/h (3 Bft) NW 315 1,8 C 1,4 C
28.02.2013 12:46 5,1 C 79 % 1028,0 hPa 0,0 l/m 16,2 km/h (3 Bft) N-NW 337 1,8 C 1,7 C
28.02.2013 12:51 5,1 C 79 % 1027,9 hPa 0,0 l/m 14,4 km/h (3 Bft) W 270 1,8 C 2,0 C
28.02.2013 12:56 5,1 C 78 % 1027,9 hPa 0,0 l/m 15,8 km/h (3 Bft) NW 315 1,6 C 1,8 C
28.02.2013 13:01 4,9 C 78 % 1027,7 hPa 0,0 l/m 6,1 km/h (2 Bft) NW 315 1,4 C 3,6 C
28.02.2013 13:06 5,0 C 78 % 1027,6 hPa 0,0 l/m 8,3 km/h (2 Bft) W 270 1,5 C 3,1 C
28.02.2013 13:11 5,0 C 78 % 1027,5 hPa 0,0 l/m 18,0 km/h (3 Bft) W 270 1,5 C 1,3 C
28.02.2013 13:16 5,2 C 78 % 1027,4 hPa 0,0 l/m 8,3 km/h (2 Bft) W-SW 247 1,7 C 3,3 C
28.02.2013 13:21 5,2 C 77 % 1027,3 hPa 0,0 l/m 27,7 km/h (4 Bft) W-SW 247 1,5 C 0,5 C
28.02.2013 13:26 5,3 C 77 % 1027,2 hPa 0,0 l/m 9,7 km/h (2 Bft) W-SW 247 1,6 C 3,1 C
28.02.2013 13:31 5,4 C 77 % 1027,2 hPa 0,0 l/m 12,2 km/h (2 Bft) W 270 1,7 C 2,7 C
28.02.2013 13:36 5,5 C 77 % 1027,1 hPa 0,0 l/m 14,4 km/h (3 Bft) W-SW 247 1,8 C 2,5 C
28.02.2013 13:41 5,4 C 76 % 1027,0 hPa 0,0 l/m 16,6 km/h (3 Bft) W 270 1,5 C 2,0 C
28.02.2013 13:46 5,5 C 76 % 1026,8 hPa 0,0 l/m 9,7 km/h (2 Bft) W-NW 292 1,6 C 3,3 C
28.02.2013 13:51 5,5 C 77 % 1026,8 hPa 0,0 l/m 2,5 km/h (1 Bft) W 270 1,8 C 5,5 C
28.02.2013 13:56 5,5 C 77 % 1026,6 hPa 0,0 l/m 14,0 km/h (3 Bft) W-SW 247 1,8 C 2,5 C
28.02.2013 14:01 5,8 C 76 % 1026,5 hPa 0,0 l/m 14,8 km/h (3 Bft) SW 225 1,9 C 2,8 C
28.02.2013 14:06 5,9 C 74 % 1026,4 hPa 0,0 l/m 14,8 km/h (3 Bft) W 270 1,6 C 2,9 C
28.02.2013 14:11 6,2 C 74 % 1026,4 hPa 0,0 l/m 13,0 km/h (3 Bft) SW 225 1,9 C 3,5 C
28.02.2013 14:16 6,3 C 73 % 1026,5 hPa 0,0 l/m 9,0 km/h (2 Bft) W-SW 247 1,8 C 4,4 C
28.02.2013 14:21 6,3 C 73 % 1026,3 hPa 0,0 l/m 17,6 km/h (3 Bft) W 270 1,8 C 3,0 C
28.02.2013 14:26 6,2 C 73 % 1026,2 hPa 0,0 l/m 27,0 km/h (4 Bft) W 270 1,7 C 1,9 C
28.02.2013 14:31 5,9 C 73 % 1026,2 hPa 0,0 l/m 3,2 km/h (1 Bft) W-NW 292 1,4 C 5,9 C
28.02.2013 14:36 5,8 C 74 % 1026,2 hPa 0,0 l/m 18,0 km/h (3 Bft) W 270 1,5 C 2,3 C
28.02.2013 14:41 5,6 C 74 % 1026,2 hPa 0,0 l/m 14,8 km/h (3 Bft) W-NW 292 1,3 C 2,5 C
28.02.2013 14:46 5,5 C 74 % 1026,0 hPa 0,0 l/m 23,0 km/h (4 Bft) W-SW 247 1,2 C 1,4 C
28.02.2013 14:51 5,4 C 74 % 1026,0 hPa 0,0 l/m 14,4 km/h (3 Bft) W 270 1,1 C 2,3 C
28.02.2013 14:56 5,5 C 75 % 1026,1 hPa 0,0 l/m 4,7 km/h (1 Bft) W-NW 292 1,4 C 4,8 C
28.02.2013 15:01 5,6 C 75 % 1026,1 hPa 0,0 l/m 7,6 km/h (2 Bft) W 270 1,5 C 3,9 C
28.02.2013 15:06 5,8 C 75 % 1026,1 hPa 0,0 l/m 6,5 km/h (2 Bft) W-NW 292 1,7 C 4,5 C
28.02.2013 15:11 5,6 C 74 % 1026,0 hPa 0,0 l/m 10,1 km/h (2 Bft) W-SW 247 1,3 C 3,4 C
28.02.2013 15:16 5,5 C 74 % 1025,9 hPa 0,0 l/m 16,6 km/h (3 Bft) W-SW 247 1,2 C 2,1 C
28.02.2013 15:21 5,4 C 75 % 1025,8 hPa 0,0 l/m 17,3 km/h (3 Bft) W 270 1,3 C 1,9 C
28.02.2013 15:26 5,6 C 75 % 1025,5 hPa 0,0 l/m 15,1 km/h (3 Bft) W-SW 247 1,5 C 2,5 C
28.02.2013 15:31 5,6 C 74 % 1025,4 hPa 0,0 l/m 16,2 km/h (3 Bft) W-SW 247 1,3 C 2,3 C
28.02.2013 15:36 5,5 C 74 % 1025,6 hPa 0,0 l/m 9,4 km/h (2 Bft) W-SW 247 1,2 C 3,4 C
28.02.2013 15:41 5,3 C 74 % 1025,7 hPa 0,0 l/m 17,3 km/h (3 Bft) W 270 1,0 C 1,8 C
28.02.2013 15:46 5,3 C 75 % 1025,5 hPa 0,0 l/m 17,6 km/h (3 Bft) W-SW 247 1,2 C 1,7 C
28.02.2013 15:51 5,2 C 75 % 1025,4 hPa 0,0 l/m 8,3 km/h (2 Bft) W-SW 247 1,1 C 3,3 C
28.02.2013 15:56 5,1 C 75 % 1025,4 hPa 0,0 l/m 17,3 km/h (3 Bft) W-SW 247 1,0 C 1,5 C
28.02.2013 16:01 5,1 C 75 % 1025,4 hPa 0,0 l/m 10,1 km/h (2 Bft) W-SW 247 1,0 C 2,8 C
28.02.2013 16:06 5,2 C 76 % 1025,3 hPa 0,0 l/m 22,0 km/h (4 Bft) SW 225 1,3 C 1,1 C
28.02.2013 16:11 5,2 C 75 % 1025,2 hPa 0,0 l/m 12,2 km/h (2 Bft) W-SW 247 1,1 C 2,5 C
28.02.2013 16:16 5,1 C 75 % 1025,3 hPa 0,0 l/m 6,1 km/h (2 Bft) W-SW 247 1,0 C 3,8 C
28.02.2013 16:21 5,1 C 76 % 1025,3 hPa 0,0 l/m 7,9 km/h (2 Bft) W-SW 247 1,2 C 3,3 C
28.02.2013 16:26 5,0 C 76 % 1025,1 hPa 0,0 l/m 19,4 km/h (3 Bft) W-SW 247 1,1 C 1,1 C
28.02.2013 16:31 5,0 C 76 % 1025,1 hPa 0,0 l/m 12,6 km/h (3 Bft) W-SW 247 1,1 C 2,1 C
28.02.2013 16:36 4,9 C 77 % 1025,1 hPa 0,0 l/m 13,3 km/h (3 Bft) W 270 1,2 C 1,9 C
28.02.2013 16:41 4,9 C 77 % 1025,0 hPa 0,0 l/m 9,0 km/h (2 Bft) W-SW 247 1,2 C 2,8 C
28.02.2013 16:46 4,8 C 77 % 1024,9 hPa 0,0 l/m 12,6 km/h (3 Bft) W 270 1,1 C 1,9 C
28.02.2013 16:51 4,8 C 77 % 1024,9 hPa 0,0 l/m 20,5 km/h (4 Bft) W-SW 247 1,1 C 0,8 C
28.02.2013 16:56 4,6 C 77 % 1024,7 hPa 0,0 l/m 5,4 km/h (1 Bft) SW 225 0,9 C 3,5 C
28.02.2013 17:01 4,5 C 78 % 1024,6 hPa 0,0 l/m 9,4 km/h (2 Bft) W-SW 247 1,0 C 2,2 C
28.02.2013 17:06 4,4 C 78 % 1024,7 hPa 0,0 l/m 4,7 km/h (1 Bft) SW 225 0,9 C 3,5 C
28.02.2013 17:11 4,3 C 78 % 1024,6 hPa 0,0 l/m 10,8 km/h (2 Bft) W-SW 247 0,8 C 1,6 C
28.02.2013 17:16 4,2 C 79 % 1024,5 hPa 0,0 l/m 12,6 km/h (3 Bft) W-SW 247 0,9 C 1,2 C
28.02.2013 17:21 4,1 C 79 % 1024,5 hPa 0,0 l/m 6,5 km/h (2 Bft) W-SW 247 0,8 C 2,5 C
28.02.2013 17:26 3,9 C 79 % 1024,4 hPa 0,0 l/m 10,8 km/h (2 Bft) W-SW 247 0,6 C 1,2 C
28.02.2013 17:31 3,9 C 79 % 1024,4 hPa 0,0 l/m 4,3 km/h (1 Bft) W-SW 247 0,6 C 3,9 C
28.02.2013 17:36 3,8 C 80 % 1024,3 hPa 0,0 l/m 7,2 km/h (2 Bft) W-SW 247 0,7 C 2,0 C
28.02.2013 17:41 3,6 C 80 % 1024,3 hPa 0,0 l/m 11,2 km/h (2 Bft) W 270 0,5 C 0,7 C
28.02.2013 17:46 3,4 C 80 % 1024,4 hPa 0,0 l/m 9,0 km/h (2 Bft) W 270 0,3 C 1,0 C
28.02.2013 17:51 3,4 C 81 % 1024,3 hPa 0,0 l/m 7,2 km/h (2 Bft) W-SW 247 0,5 C 1,5 C
28.02.2013 17:56 3,3 C 81 % 1024,3 hPa 0,0 l/m 5,4 km/h (1 Bft) W-SW 247 0,4 C 2,0 C
28.02.2013 18:01 3,1 C 81 % 1024,2 hPa 0,0 l/m 6,1 km/h (2 Bft) W 270 0,2 C 1,5 C
28.02.2013 18:06 3,0 C 82 % 1024,2 hPa 0,0 l/m 9,4 km/h (2 Bft) W-SW 247 0,2 C 0,4 C
28.02.2013 18:11 2,9 C 82 % 1024,1 hPa 0,0 l/m 12,6 km/h (3 Bft) W-SW 247 0,1 C -0,4 C
28.02.2013 18:16 2,9 C 83 % 1024,3 hPa 0,0 l/m 9,7 km/h (2 Bft) W-SW 247 0,3 C 0,2 C
28.02.2013 18:21 2,8 C 83 % 1024,2 hPa 0,0 l/m 7,2 km/h (2 Bft) SW 225 0,2 C 0,8 C
28.02.2013 18:26 2,7 C 83 % 1024,2 hPa 0,0 l/m 14,8 km/h (3 Bft) W-SW 247 0,1 C -1,1 C
28.02.2013 18:31 2,6 C 83 % 1024,1 hPa 0,0 l/m 7,6 km/h (2 Bft) W-SW 247 0,0 C 0,4 C
28.02.2013 18:36 2,5 C 84 % 1024,0 hPa 0,0 l/m 6,5 km/h (2 Bft) W-SW 247 0,1 C 0,7 C
28.02.2013 18:41 2,4 C 84 % 1024,1 hPa 0,0 l/m 4,3 km/h (1 Bft) W 270 -0,0 C 2,4 C
28.02.2013 18:46 2,4 C 84 % 1024,2 hPa 0,0 l/m 12,2 km/h (2 Bft) W 270 -0,0 C -0,9 C
28.02.2013 18:51 2,3 C 84 % 1023,9 hPa 0,0 l/m 5,4 km/h (1 Bft) W-SW 247 -0,1 C 0,9 C
28.02.2013 18:56 2,3 C 84 % 1024,0 hPa 0,0 l/m 13,7 km/h (3 Bft) W-SW 247 -0,1 C -1,3 C
28.02.2013 19:01 2,2 C 85 % 1024,0 hPa 0,0 l/m 3,6 km/h (1 Bft) W-SW 247 -0,1 C 2,2 C
28.02.2013 19:06 2,2 C 85 % 1023,9 hPa 0,0 l/m 2,9 km/h (1 Bft) W 270 -0,1 C 2,2 C
28.02.2013 19:11 2,1 C 85 % 1024,0 hPa 0,0 l/m 1,8 km/h (1 Bft) NW 315 -0,2 C 2,1 C
28.02.2013 19:16 2,1 C 85 % 1024,1 hPa 0,0 l/m 7,6 km/h (2 Bft) NW 315 -0,2 C -0,2 C
28.02.2013 19:21 1,9 C 85 % 1024,0 hPa 0,0 l/m 11,2 km/h (2 Bft) NW 315 -0,3 C -1,3 C
28.02.2013 19:26 1,8 C 85 % 1024,0 hPa 0,0 l/m 8,3 km/h (2 Bft) NW 315 -0,4 C -0,7 C
28.02.2013 19:31 1,6 C 85 % 1024,0 hPa 0,0 l/m 7,6 km/h (2 Bft) W-NW 292 -0,6 C -0,7 C
28.02.2013 19:36 1,5 C 85 % 1024,0 hPa 0,0 l/m 8,3 km/h (2 Bft) N-NW 337 -0,7 C -1,1 C
28.02.2013 19:41 1,3 C 86 % 1024,0 hPa 0,0 l/m 8,6 km/h (2 Bft) N-NW 337 -0,8 C -1,4 C
28.02.2013 19:46 1,3 C 86 % 1024,0 hPa 0,0 l/m 2,5 km/h (1 Bft) W-NW 292 -0,8 C 1,3 C
28.02.2013 19:51 1,2 C 86 % 1024,2 hPa 0,0 l/m 6,1 km/h (2 Bft) NW 315 -0,9 C -0,7 C
28.02.2013 19:56 1,0 C 86 % 1024,2 hPa 0,0 l/m 11,2 km/h (2 Bft) NO 45 -1,1 C -2,4 C
28.02.2013 20:01 0,9 C 87 % 1024,0 hPa 0,0 l/m 5,8 km/h (2 Bft) NO 45 -1,0 C -0,9 C
28.02.2013 20:06 0,8 C 87 % 1024,0 hPa 0,0 l/m 10,8 km/h (2 Bft) N-NW 337 -1,1 C -2,6 C
28.02.2013 20:11 0,8 C 87 % 1024,0 hPa 0,0 l/m 7,9 km/h (2 Bft) N 360 -1,1 C -1,8 C
28.02.2013 20:16 0,7 C 88 % 1024,0 hPa 0,0 l/m 5,0 km/h (1 Bft) NO 45 -1,1 C -0,8 C
28.02.2013 20:21 0,7 C 88 % 1024,0 hPa 0,0 l/m 5,0 km/h (1 Bft) N 360 -1,1 C -0,8 C
28.02.2013 20:26 0,8 C 88 % 1024,0 hPa 0,0 l/m 9,4 km/h (2 Bft) N 360 -1,0 C -2,2 C
28.02.2013 20:31 0,8 C 89 % 1023,9 hPa 0,0 l/m 5,8 km/h (2 Bft) NO 45 -0,8 C -1,0 C
28.02.2013 20:36 0,8 C 89 % 1023,9 hPa 0,0 l/m 8,3 km/h (2 Bft) N-NW 337 -0,8 C -1,9 C
28.02.2013 20:41 0,8 C 89 % 1023,9 hPa 0,0 l/m 7,6 km/h (2 Bft) N-NW 337 -0,8 C -1,7 C
28.02.2013 20:46 0,8 C 89 % 1023,8 hPa 0,0 l/m 6,1 km/h (2 Bft) N-NW 337 -0,8 C -1,1 C
28.02.2013 20:51 0,8 C 89 % 1023,8 hPa 0,0 l/m 4,7 km/h (1 Bft) NO 45 -0,8 C -0,5 C
28.02.2013 20:56 0,7 C 89 % 1023,9 hPa 0,0 l/m 5,0 km/h (1 Bft) NO 45 -0,9 C -0,8 C
28.02.2013 21:01 0,6 C 89 % 1023,8 hPa 0,0 l/m 7,2 km/h (2 Bft) NW 315 -1,0 C -1,8 C
28.02.2013 21:06 0,7 C 89 % 1023,7 hPa 0,0 l/m 4,7 km/h (1 Bft) N 360 -0,9 C -0,7 C
28.02.2013 21:11 0,7 C 89 % 1023,6 hPa 0,0 l/m 15,5 km/h (3 Bft) N-NW 337 -0,9 C -3,6 C
28.02.2013 21:16 0,7 C 89 % 1023,8 hPa 0,0 l/m 12,2 km/h (2 Bft) W-NW 292 -0,9 C -3,0 C
28.02.2013 21:21 0,7 C 89 % 1023,6 hPa 0,0 l/m 8,6 km/h (2 Bft) W-NW 292 -0,9 C -2,1 C
28.02.2013 21:26 0,7 C 89 % 1023,7 hPa 0,0 l/m 9,7 km/h (2 Bft) W-NW 292 -0,9 C -2,4 C
28.02.2013 21:31 0,7 C 89 % 1023,8 hPa 0,0 l/m 13,7 km/h (3 Bft) NW 315 -0,9 C -3,3 C
28.02.2013 21:36 0,7 C 89 % 1023,5 hPa 0,0 l/m 2,2 km/h (1 Bft) W 270 -0,9 C 0,7 C
28.02.2013 21:41 0,8 C 89 % 1023,5 hPa 0,0 l/m 7,2 km/h (2 Bft) NW 315 -0,8 C -1,5 C
28.02.2013 21:46 0,8 C 89 % 1023,5 hPa 0,0 l/m 7,2 km/h (2 Bft) NW 315 -0,8 C -1,5 C
28.02.2013 21:51 0,8 C 90 % 1023,5 hPa 0,0 l/m 5,0 km/h (1 Bft) W-NW 292 -0,6 C -0,7 C
28.02.2013 21:56 0,8 C 90 % 1023,6 hPa 0,0 l/m 2,5 km/h (1 Bft) W-NW 292 -0,6 C 0,8 C
28.02.2013 22:01 0,8 C 90 % 1023,6 hPa 0,0 l/m 3,6 km/h (1 Bft) W-NW 292 -0,6 C 0,8 C
28.02.2013 22:06 0,9 C 90 % 1023,4 hPa 0,0 l/m 0,0 km/h (0 Bft) W 270 -0,6 C 0,9 C
28.02.2013 22:11 0,9 C 90 % 1023,3 hPa 0,0 l/m 7,9 km/h (2 Bft) W 270 -0,6 C -1,7 C
28.02.2013 22:16 0,9 C 90 % 1023,3 hPa 0,0 l/m 16,2 km/h (3 Bft) W 270 -0,6 C -3,5 C
28.02.2013 22:21 0,9 C 90 % 1023,3 hPa 0,0 l/m 8,3 km/h (2 Bft) W 270 -0,6 C -1,8 C
28.02.2013 22:26 0,9 C 90 % 1023,4 hPa 0,0 l/m 6,5 km/h (2 Bft) W-SW 247 -0,6 C -1,2 C
28.02.2013 22:31 0,9 C 91 % 1023,4 hPa 0,0 l/m 2,2 km/h (1 Bft) W 270 -0,4 C 0,9 C
28.02.2013 22:36 0,9 C 91 % 1023,3 hPa 0,0 l/m 9,0 km/h (2 Bft) W 270 -0,4 C -2,0 C
28.02.2013 22:41 0,9 C 91 % 1023,3 hPa 0,0 l/m 7,6 km/h (2 Bft) W 270 -0,4 C -1,6 C
28.02.2013 22:46 0,9 C 91 % 1023,3 hPa 0,0 l/m 16,9 km/h (3 Bft) W 270 -0,4 C -3,6 C
28.02.2013 22:51 0,9 C 91 % 1023,2 hPa 0,0 l/m 13,0 km/h (3 Bft) W 270 -0,4 C -2,9 C
28.02.2013 22:56 1,0 C 91 % 1023,3 hPa 0,0 l/m 9,7 km/h (2 Bft) W 270 -0,3 C -2,0 C
28.02.2013 23:01 1,0 C 91 % 1023,2 hPa 0,0 l/m 13,7 km/h (3 Bft) W-SW 247 -0,3 C -2,9 C
28.02.2013 23:06 1,0 C 91 % 1023,3 hPa 0,0 l/m 10,1 km/h (2 Bft) W-NW 292 -0,3 C -2,1 C
28.02.2013 23:11 1,1 C 91 % 1023,2 hPa 0,0 l/m 17,3 km/h (3 Bft) W-SW 247 -0,2 C -3,4 C
28.02.2013 23:16 1,1 C 92 % 1023,1 hPa 0,0 l/m 10,4 km/h (2 Bft) W 270 -0,1 C -2,1 C
28.02.2013 23:21 1,1 C 92 % 1023,0 hPa 0,0 l/m 5,0 km/h (1 Bft) W-SW 247 -0,1 C -0,3 C
28.02.2013 23:26 1,2 C 92 % 1022,9 hPa 0,0 l/m 6,5 km/h (2 Bft) W-NW 292 0,0 C -0,8 C
28.02.2013 23:31 1,2 C 92 % 1023,0 hPa 0,0 l/m 13,7 km/h (3 Bft) W 270 0,0 C -2,7 C
28.02.2013 23:36 1,3 C 92 % 1022,9 hPa 0,0 l/m 6,1 km/h (2 Bft) W 270 0,1 C -0,6 C
28.02.2013 23:41 1,3 C 92 % 1022,9 hPa 0,0 l/m 14,8 km/h (3 Bft) W 270 0,1 C -2,8 C
28.02.2013 23:46 1,3 C 92 % 1022,8 hPa 0,0 l/m 5,4 km/h (1 Bft) W 270 0,1 C -0,3 C
28.02.2013 23:51 1,3 C 92 % 1022,9 hPa 0,0 l/m 20,9 km/h (4 Bft) W 270 0,1 C -3,7 C
28.02.2013 23:56 1,3 C 92 % 1022,7 hPa 0,0 l/m 8,6 km/h (2 Bft) W-SW 247 0,1 C -1,4 C
_ Min-Zeit 06:16 14:16 23:56 - 00:01 - - 06:16 23:51
Minimum _ -1,4 C 73 % 1022,7 hPa - 0,0 km/h (0 Bft) - - -2,7 C -3,7 C
_ Max-Zeit 14:16 08:46 00:01 00:01 13:21 - - 12:31 14:31
Maximum _ 6,3 C 93 % 1032,7 hPa 0,0 l/m 27,7 km/h
W-SW (4 Bft)
- - 2,1 C 5,9 C
Durchschnitt _ 1,8 C 86 % 1027,7 hPa #0,0 l/m 6,4 km/h (2 Bft) W-SW - -0,2 C 0,3 C
(c) by David Heller